Time;durP1;ratioP1;P1;durP2;ratioP2;P2;SDS_P1;SDS_P2;PMS_P1;PMS_P2;Temp;Humidity;BMP_temperature;BMP_pressure;BME280_temperature;BME280_humidity;BME280_pressure;Samples;Min_cycle;Max_cycle;Signal;HPM_P1;HPM_P2
2021/08/16 00:00:22;;;;;;;;;;;;;;;;;;2065638;28;1183;-91
2021/08/16 00:01:24;;;;;;;;;;;;;;;;;;2065354;28;1931;-91
2021/08/16 00:02:24;;;;;;;;;;;;;;;;;;2065247;28;1162;-90
2021/08/16 00:03:26;;;;;;;;;;;;;;;;;;2065673;28;1914;-92
2021/08/16 00:04:27;;;;;;;;;;;;;;;;;;2073610;28;1351;-90
2021/08/16 00:05:29;;;;;;;;;;;;;;;;;;2065699;28;1271;-91
2021/08/16 00:06:31;;;;;;;;;;;;;;;;;;2072220;28;1966;-90
2021/08/16 00:07:34;;;;;;;;;;;;;;;;;;2073967;28;1250;-91
2021/08/16 00:08:34;;;;;;;;;;;;;;;;;;2073593;28;1331;-90
2021/08/16 00:09:36;;;;;;;;;;;;;;;;;;2073046;28;1226;-91
2021/08/16 00:10:39;;;;;;;;;;;;;;;;;;2072893;28;1958;-92
2021/08/16 00:11:40;;;;;;;;;;;;;;;;;;2073095;28;1284;-90
2021/08/16 00:12:42;;;;;;;;;;;;;;;;;;2073080;28;1253;-90
2021/08/16 00:13:43;;;;;;;;;;;;;;;;;;2073389;28;1205;-90
2021/08/16 00:14:45;;;;;;;;;;;;;;;;;;2065380;28;1323;-91
2021/08/16 00:15:45;;;;;;;;;;;;;;;;;;2065165;28;2022;-90
2021/08/16 00:16:47;;;;;;;;;;;;;;;;;;2072887;28;1182;-90
2021/08/16 00:17:52;;;;;;;;;;;;;;;;;;2065389;28;2025;-92
2021/08/16 00:19:03;;;;;;;;;;;;;;;;;;2058705;28;1241;-91
2021/08/16 00:20:07;;;;;;;;;;;;;;;;;;2067781;28;1448;-93
2021/08/16 00:21:08;;;;;;;;;;;;;;;;;;2073307;28;2132;-92
2021/08/16 00:22:14;;;;;;;;;;;;;;;;;;2073948;28;1367;-92
2021/08/16 00:23:15;;;;;;;;;;;;;;;;;;2065715;28;1432;-94
2021/08/16 00:24:17;;;;;;;;;;;;;;;;;;2065122;28;1910;-91
2021/08/16 00:25:18;;;;;;;;;;;;;;;;;;2065491;28;1353;-91
2021/08/16 00:26:23;;;;;;;;;;;;;;;;;;2065108;28;1298;-92
2021/08/16 00:27:24;;;;;;;;;;;;;;;;;;2065847;28;1465;-92
2021/08/16 00:28:27;;;;;;;;;;;;;;;;;;2065011;28;1206;-92
2021/08/16 00:29:34;;;;;;;;;;;;;;;;;;2065536;28;1399;-91
2021/08/16 00:30:37;;;;;;;;;;;;;;;;;;2065695;28;1388;-91
2021/08/16 00:31:44;;;;;;;;;;;;;;;;;;2066715;28;854;-91
2021/08/16 00:32:52;;;;;;;;;;;;;;;;;;2066545;28;1333;-91
2021/08/16 00:34:09;;;;;;;;;;;;;;;;;;2066545;28;1283;-91
2021/08/16 00:35:12;;;;;;;;;;;;;;;;;;2068175;28;1314;-91
2021/08/16 00:36:16;;;;;;;;;;;;;;;;;;2073846;28;1103;-91
2021/08/16 00:37:19;;;;;;;;;;;;;;;;;;2073687;28;1290;-92
2021/08/16 00:38:28;;;;;;;;;;;;;;;;;;2072870;28;1211;-92
2021/08/16 00:39:38;;;;;;;;;;;;;;;;;;2080312;28;1238;-91
2021/08/16 00:40:45;;;;;;;;;;;;;;;;;;2072268;28;2074;-92
2021/08/16 00:41:58;;;;;;;;;;;;;;;;;;2081818;28;1373;-93
2021/08/16 00:43:14;;;;;;;;;;;;;;;;;;2078813;28;1885;-91
2021/08/16 00:44:26;;;;;;;;;;;;;;;;;;2073787;28;1906;-91
2021/08/16 00:45:45;;;;;;;;;;;;;;;;;;2076609;28;1304;-93
2021/08/16 00:47:00;;;;;;;;;;;;;;;;;;2076278;28;1045;-93
2021/08/16 00:48:02;;;;;;;;;;;;;;;;;;2061456;28;1335;-95
2021/08/16 00:49:06;;;;;;;;;;;;;;;;;;2059198;28;1608;-94
2021/08/16 00:51:36;;;;;;;;;;;;;;;;;;2069494;28;1549;-94
2021/08/16 00:52:39;;;;;;;;;;;;;;;;;;2117022;28;1400;-94
2021/08/16 00:53:44;;;;;;;;;;;;;;;;;;2075107;28;1412;-91
2021/08/16 00:54:45;;;;;;;;;;;;;;;;;;2067050;28;1207;-94
2021/08/16 00:55:48;;;;;;;;;;;;;;;;;;2067968;28;1315;-94
2021/08/16 00:56:50;;;;;;;;;;;;;;;;;;2075013;28;1368;-94
2021/08/16 00:57:55;;;;;;;;;;;;;;;;;;2066861;28;1303;-94
2021/08/16 00:58:57;;;;;;;;;;;;;;;;;;2059144;28;1250;-94
2021/08/16 01:00:01;;;;;;;;;;;;;;;;;;2051171;28;1308;-94
2021/08/16 01:01:02;;;;;;;;;;;;;;;;;;2066931;28;2057;-94
2021/08/16 01:02:05;;;;;;;;;;;;;;;;;;2058907;28;1301;-94
2021/08/16 01:03:06;;;;;;;;;;;;;;;;;;2064617;28;1239;-94
2021/08/16 01:04:08;;;;;;;;;;;;;;;;;;2066824;28;1902;-95
2021/08/16 01:05:11;;;;;;;;;;;;;;;;;;2074691;28;1375;-93
2021/08/16 01:06:14;;;;;;;;;;;;;;;;;;2067231;28;1293;-94
2021/08/16 01:07:15;;;;;;;;;;;;;;;;;;2066650;28;1222;-94
2021/08/16 01:08:19;;;;;;;;;;;;;;;;;;2074755;28;1315;-95
2021/08/16 01:09:19;;;;;;;;;;;;;;;;;;2074956;28;1343;-93
2021/08/16 01:10:22;;;;;;;;;;;;;;;;;;2074985;28;1234;-94
2021/08/16 01:11:23;;;;;;;;;;;;;;;;;;2066416;28;1412;-94
2021/08/16 01:12:26;;;;;;;;;;;;;;;;;;2066802;28;1229;-94
2021/08/16 01:13:28;;;;;;;;;;;;;;;;;;2066857;28;1214;-94
2021/08/16 01:14:30;;;;;;;;;;;;;;;;;;2066261;28;1272;-94
2021/08/16 01:15:33;;;;;;;;;;;;;;;;;;2066727;28;1210;-94
2021/08/16 01:16:36;;;;;;;;;;;;;;;;;;2058988;28;1315;-94
2021/08/16 01:17:39;;;;;;;;;;;;;;;;;;2067166;28;898;-94
2021/08/16 01:18:40;;;;;;;;;;;;;;;;;;2074532;28;1226;-94
2021/08/16 01:19:46;;;;;;;;;;;;;;;;;;2066669;28;1410;-94
2021/08/16 01:20:47;;;;;;;;;;;;;;;;;;2075086;28;1241;-94
2021/08/16 01:21:50;;;;;;;;;;;;;;;;;;2074411;28;1242;-93
2021/08/16 01:22:51;;;;;;;;;;;;;;;;;;2074170;28;1196;-94
2021/08/16 01:23:57;;;;;;;;;;;;;;;;;;2066654;28;1416;-94
2021/08/16 01:24:58;;;;;;;;;;;;;;;;;;2067253;28;1315;-94
2021/08/16 01:26:12;;;;;;;;;;;;;;;;;;2058760;28;1332;-94
2021/08/16 01:27:15;;;;;;;;;;;;;;;;;;2062182;28;1492;-93
2021/08/16 01:28:18;;;;;;;;;;;;;;;;;;2066528;28;1224;-94
2021/08/16 01:29:20;;;;;;;;;;;;;;;;;;2058855;28;1242;-94
2021/08/16 01:30:22;;;;;;;;;;;;;;;;;;2066263;28;1324;-94
2021/08/16 01:31:22;;;;;;;;;;;;;;;;;;2066862;28;1333;-94
2021/08/16 01:34:43;;;;;;;;;;;;;;;;;;2075150;28;606;-94
2021/08/16 01:36:18;;;;;;;;;;;;;;;;;;;;;
2021/08/16 01:42:55;;;;;;;;;;;;;;;;;;2083153;28;1219;-94
2021/08/16 01:45:47;;;;;;;;;;;;;;;;;;2081092;28;1412;-94
2021/08/16 01:46:54;;;;;;;;;;;;;;;;;;2066462;28;1462;-93
2021/08/16 01:47:59;;;;;;;;;;;;;;;;;;2067921;28;1402;-94
2021/08/16 01:48:59;;;;;;;;;;;;;;;;;;2074985;28;1324;-94
2021/08/16 01:50:04;;;;;;;;;;;;;;;;;;2075286;28;1312;-95
2021/08/16 01:51:07;;;;;;;;;;;;;;;;;;2073741;28;1368;-93
2021/08/16 01:52:08;;;;;;;;;;;;;;;;;;2116886;28;1225;-93
2021/08/16 01:53:11;;;;;;;;;;;;;;;;;;2074582;28;1327;-93
2021/08/16 01:54:15;;;;;;;;;;;;;;;;;;2082112;28;1340;-92
2021/08/16 01:55:43;;;;;;;;;;;;;;;;;;2082717;28;1267;-94
2021/08/16 01:57:49;;;;;;;;;;;;;;;;;;2070990;28;1328;-94
2021/08/16 02:00:05;;;;;;;;;;;;;;;;;;2058174;28;697;-94
2021/08/16 02:01:53;;;;;;;;;;;;;;;;;;2074630;28;1210;-94
2021/08/16 02:03:56;;;;;;;;;;;;;;;;;;2075041;28;669;-95
2021/08/16 02:07:54;;;;;;;;;;;;;;;;;;2076287;28;985;-94
2021/08/16 02:09:37;;;;;;;;;;;;;;;;;;2044315;28;1499;-95
2021/08/16 02:11:00;;;;;;;;;;;;;;;;;;2074760;28;1248;-95
2021/08/16 02:12:43;;;;;;;;;;;;;;;;;;2058127;28;1021;-95
2021/08/16 02:16:55;;;;;;;;;;;;;;;;;;2076578;28;1325;-95
2021/08/16 02:18:05;;;;;;;;;;;;;;;;;;2080046;28;828;-93
2021/08/16 02:54:06;;;;;;;;;;;;;;;;;;2043350;29;569;-94
2021/08/16 03:01:33;;;;;;;;;;;;;;;;;;2007266;29;1431;-94
2021/08/16 03:02:36;;;;;;;;;;;;;;;;;;2017036;29;1291;-94
2021/08/16 03:03:41;;;;;;;;;;;;;;;;;;2035021;29;1269;-93
2021/08/16 03:04:41;;;;;;;;;;;;;;;;;;2035550;29;1972;-93
2021/08/16 03:06:08;;;;;;;;;;;;;;;;;;2042715;29;1302;-94
2021/08/16 03:32:23;;;;;;;;;;;;;;;;;;2027010;29;1337;-91
2021/08/16 03:33:23;;;;;;;;;;;;;;;;;;2026992;29;1253;-92
2021/08/16 03:34:31;;;;;;;;;;;;;;;;;;2042225;28;1280;-91
2021/08/16 03:35:32;;;;;;;;;;;;;;;;;;2091650;28;1197;-91
2021/08/16 03:36:34;;;;;;;;;;;;;;;;;;2107878;28;1353;-91
2021/08/16 03:37:35;;;;;;;;;;;;;;;;;;2107712;28;1292;-91
2021/08/16 03:38:38;;;;;;;;;;;;;;;;;;2107667;28;1338;-92
2021/08/16 03:39:43;;;;;;;;;;;;;;;;;;2108303;28;1332;-91
2021/08/16 03:41:02;;;;;;;;;;;;;;;;;;2099499;28;1339;-92
2021/08/16 03:44:56;;;;;;;;;;;;;;;;;;2098633;28;1169;-94
2021/08/16 03:46:24;;;;;;;;;;;;;;;;;;2111424;28;879;-93
2021/08/16 03:47:49;;;;;;;;;;;;;;;;;;2104402;28;1288;-92
2021/08/16 03:48:58;;;;;;;;;;;;;;;;;;2101805;28;1258;-91
2021/08/16 03:50:07;;;;;;;;;;;;;;;;;;2100984;28;1263;-93
2021/08/16 03:51:29;;;;;;;;;;;;;;;;;;2098467;28;1943;-92
2021/08/16 03:52:35;;;;;;;;;;;;;;;;;;2100122;28;1277;-92
2021/08/16 03:53:52;;;;;;;;;;;;;;;;;;2109142;28;1395;-92
2021/08/16 03:55:13;;;;;;;;;;;;;;;;;;2109006;28;1472;-92
2021/08/16 03:56:31;;;;;;;;;;;;;;;;;;2112629;28;1359;-92
2021/08/16 03:57:46;;;;;;;;;;;;;;;;;;2116607;28;1283;-93
2021/08/16 03:59:00;;;;;;;;;;;;;;;;;;2109609;28;1322;-92
2021/08/16 04:00:20;;;;;;;;;;;;;;;;;;2116493;28;1482;-92
2021/08/16 04:01:26;;;;;;;;;;;;;;;;;;2116232;28;1365;-92
2021/08/16 04:05:20;;;;;;;;;;;;;;;;;;2125039;28;1922;-92
2021/08/16 04:06:37;;;;;;;;;;;;;;;;;;2124325;28;1222;-92
2021/08/16 04:09:35;;;;;;;;;;;;;;;;;;2076857;28;1418;-93
2021/08/16 04:11:11;;;;;;;;;;;;;;;;;;;;;
2021/08/16 04:12:15;;;;;;;;;;;;;;;;;;2081826;28;1354;-93
2021/08/16 04:13:25;;;;;;;;;;;;;;;;;;2116331;28;1230;-93
2021/08/16 04:14:39;;;;;;;;;;;;;;;;;;2109977;28;773;-93
2021/08/16 04:16:18;;;;;;;;;;;;;;;;;;2120199;27;1712;-93
2021/08/16 04:17:29;;;;;;;;;;;;;;;;;;2070505;28;1359;-93
2021/08/16 04:18:36;;;;;;;;;;;;;;;;;;2077996;28;1358;-93
2021/08/16 04:19:54;;;;;;;;;;;;;;;;;;2075592;28;1410;-93
2021/08/16 04:24:17;;;;;;;;;;;;;;;;;;2067520;28;1344;-93
2021/08/16 04:25:18;;;;;;;;;;;;;;;;;;2066566;28;1989;-92
2021/08/16 04:26:21;;;;;;;;;;;;;;;;;;2074720;28;1229;-93
2021/08/16 04:27:22;;;;;;;;;;;;;;;;;;2066031;28;1978;-93
2021/08/16 04:28:24;;;;;;;;;;;;;;;;;;2058749;28;1358;-92
2021/08/16 04:29:34;;;;;;;;;;;;;;;;;;2058911;28;1183;-93
2021/08/16 04:31:07;;;;;;;;;;;;;;;;;;2067410;28;1378;-94
2021/08/16 04:36:31;;;;;;;;;;;;;;;;;;2065945;28;1510;-94
2021/08/16 04:38:10;;;;;;;;;;;;;;;;;;2063490;28;1351;-93
2021/08/16 04:39:45;;;;;;;;;;;;;;;;;;2058769;28;1400;-93
2021/08/16 04:43:04;;;;;;;;;;;;;;;;;;2046108;28;1138;-94
2021/08/16 04:44:36;;;;;;;;;;;;;;;;;;2058499;28;1613;-94
2021/08/16 04:46:28;;;;;;;;;;;;;;;;;;2064787;28;1173;-93
2021/08/16 04:47:48;;;;;;;;;;;;;;;;;;2049932;29;1271;-94
2021/08/16 04:48:50;;;;;;;;;;;;;;;;;;2050874;28;1316;-94
2021/08/16 04:49:54;;;;;;;;;;;;;;;;;;2049218;28;1189;-94
2021/08/16 04:51:02;;;;;;;;;;;;;;;;;;2060000;28;948;-94
2021/08/16 04:52:04;;;;;;;;;;;;;;;;;;2066606;28;1253;-93
2021/08/16 04:53:08;;;;;;;;;;;;;;;;;;2058534;28;1278;-94
2021/08/16 04:54:08;;;;;;;;;;;;;;;;;;2050295;28;1418;-94
2021/08/16 04:55:12;;;;;;;;;;;;;;;;;;2066494;28;1346;-94
2021/08/16 04:56:14;;;;;;;;;;;;;;;;;;2067046;28;1321;-94
2021/08/16 04:57:15;;;;;;;;;;;;;;;;;;2066693;28;1247;-93
2021/08/16 04:58:17;;;;;;;;;;;;;;;;;;2082419;28;1299;-94
2021/08/16 04:59:18;;;;;;;;;;;;;;;;;;2082673;28;1202;-94
2021/08/16 05:00:49;;;;;;;;;;;;;;;;;;2065581;28;1327;-94
2021/08/16 05:02:08;;;;;;;;;;;;;;;;;;2091493;27;1341;-94
2021/08/16 05:03:25;;;;;;;;;;;;;;;;;;2082842;28;1504;-94
2021/08/16 05:04:26;;;;;;;;;;;;;;;;;;2078414;28;1316;-94
2021/08/16 05:05:30;;;;;;;;;;;;;;;;;;2082571;28;1989;-94
2021/08/16 05:06:32;;;;;;;;;;;;;;;;;;2083038;28;1348;-95
2021/08/16 05:07:38;;;;;;;;;;;;;;;;;;2074635;28;1294;-93
2021/08/16 05:08:42;;;;;;;;;;;;;;;;;;2075012;28;1220;-94
2021/08/16 05:09:44;;;;;;;;;;;;;;;;;;2075593;28;1289;-94
2021/08/16 05:10:50;;;;;;;;;;;;;;;;;;2083069;28;857;-94
2021/08/16 05:11:51;;;;;;;;;;;;;;;;;;2082985;28;1349;-92
2021/08/16 05:12:55;;;;;;;;;;;;;;;;;;2082931;28;1296;-92
2021/08/16 05:13:56;;;;;;;;;;;;;;;;;;2083046;28;1344;-92
2021/08/16 05:14:58;;;;;;;;;;;;;;;;;;2074850;28;1234;-93
2021/08/16 05:16:00;;;;;;;;;;;;;;;;;;2074870;28;1234;-93
2021/08/16 05:17:03;;;;;;;;;;;;;;;;;;2082861;28;1321;-93
2021/08/16 05:18:06;;;;;;;;;;;;;;;;;;2082207;28;1298;-92
2021/08/16 05:19:07;;;;;;;;;;;;;;;;;;2074553;28;1176;-93
2021/08/16 05:20:10;;;;;;;;;;;;;;;;;;2074295;28;1329;-93
2021/08/16 05:21:11;;;;;;;;;;;;;;;;;;2074630;28;1459;-91
2021/08/16 05:22:14;;;;;;;;;;;;;;;;;;2074449;28;1340;-92
2021/08/16 05:23:17;;;;;;;;;;;;;;;;;;2074982;28;1225;-93
2021/08/16 05:24:20;;;;;;;;;;;;;;;;;;2066961;28;1261;-92
2021/08/16 05:25:22;;;;;;;;;;;;;;;;;;2066279;28;1914;-93
2021/08/16 05:26:23;;;;;;;;;;;;;;;;;;2073923;28;1319;-92
2021/08/16 05:27:27;;;;;;;;;;;;;;;;;;2075390;28;1305;-93
2021/08/16 05:28:28;;;;;;;;;;;;;;;;;;2074856;28;1401;-94
2021/08/16 05:29:34;;;;;;;;;;;;;;;;;;2074810;28;1254;-94
2021/08/16 05:30:37;;;;;;;;;;;;;;;;;;2067056;28;1246;-94
2021/08/16 05:31:38;;;;;;;;;;;;;;;;;;2066857;28;1419;-95
2021/08/16 05:32:42;;;;;;;;;;;;;;;;;;2074614;28;1154;-94
2021/08/16 05:33:42;;;;;;;;;;;;;;;;;;2074710;28;1368;-94
2021/08/16 05:34:44;;;;;;;;;;;;;;;;;;2074063;28;1370;-95
2021/08/16 05:35:47;;;;;;;;;;;;;;;;;;2074502;28;1162;-94
2021/08/16 05:36:48;;;;;;;;;;;;;;;;;;2074016;28;1398;-94
2021/08/16 05:37:53;;;;;;;;;;;;;;;;;;2086500;28;1146;-94
2021/08/16 05:38:56;;;;;;;;;;;;;;;;;;2090904;28;1182;-94
2021/08/16 05:40:00;;;;;;;;;;;;;;;;;;2082268;28;1291;-94
2021/08/16 05:41:02;;;;;;;;;;;;;;;;;;2082542;28;1415;-94
2021/08/16 05:42:03;;;;;;;;;;;;;;;;;;2091090;28;1167;-94
2021/08/16 05:43:06;;;;;;;;;;;;;;;;;;2081522;28;2028;-93
2021/08/16 05:44:06;;;;;;;;;;;;;;;;;;2082191;28;1214;-95
2021/08/16 05:45:09;;;;;;;;;;;;;;;;;;2074139;28;1224;-94
2021/08/16 05:46:10;;;;;;;;;;;;;;;;;;2079061;28;1979;-95
2021/08/16 05:47:12;;;;;;;;;;;;;;;;;;2082441;28;1246;-94
2021/08/16 05:48:17;;;;;;;;;;;;;;;;;;2090316;28;1509;-94
2021/08/16 05:49:19;;;;;;;;;;;;;;;;;;2083680;28;1241;-94
2021/08/16 05:50:22;;;;;;;;;;;;;;;;;;2082760;28;1214;-93
2021/08/16 05:51:23;;;;;;;;;;;;;;;;;;2076291;28;1249;-94
2021/08/16 05:52:27;;;;;;;;;;;;;;;;;;2075105;28;2071;-95
2021/08/16 05:53:30;;;;;;;;;;;;;;;;;;2082690;28;1429;-94
2021/08/16 05:54:31;;;;;;;;;;;;;;;;;;2074879;28;1374;-94
2021/08/16 05:55:35;;;;;;;;;;;;;;;;;;2074565;28;1417;-93
2021/08/16 05:56:36;;;;;;;;;;;;;;;;;;2082498;28;2182;-92
2021/08/16 05:57:38;;;;;;;;;;;;;;;;;;2080015;28;1231;-93
2021/08/16 05:58:38;;;;;;;;;;;;;;;;;;2074709;28;1315;-91
2021/08/16 05:59:41;;;;;;;;;;;;;;;;;;2074367;28;1242;-93
2021/08/16 06:00:43;;;;;;;;;;;;;;;;;;2082543;28;921;-94
2021/08/16 06:01:44;;;;;;;;;;;;;;;;;;2074489;28;1329;-94
2021/08/16 06:02:46;;;;;;;;;;;;;;;;;;2069291;28;1851;-94
2021/08/16 06:03:47;;;;;;;;;;;;;;;;;;2082916;28;1210;-93
2021/08/16 06:04:50;;;;;;;;;;;;;;;;;;2090700;28;1467;-94
2021/08/16 06:05:54;;;;;;;;;;;;;;;;;;2088588;28;2143;-94
2021/08/16 06:06:55;;;;;;;;;;;;;;;;;;2082641;28;1223;-95
2021/08/16 06:07:57;;;;;;;;;;;;;;;;;;2086970;28;1461;-94
2021/08/16 06:09:00;;;;;;;;;;;;;;;;;;2082458;28;1354;-94
2021/08/16 06:10:02;;;;;;;;;;;;;;;;;;2082999;28;1301;-94
2021/08/16 06:11:06;;;;;;;;;;;;;;;;;;2082434;28;1278;-94
2021/08/16 06:12:08;;;;;;;;;;;;;;;;;;2074662;28;1300;-94
2021/08/16 06:13:11;;;;;;;;;;;;;;;;;;2081016;28;2071;-94
2021/08/16 06:14:12;;;;;;;;;;;;;;;;;;2082158;28;1292;-94
2021/08/16 06:15:16;;;;;;;;;;;;;;;;;;2073956;28;1276;-94
2021/08/16 06:16:17;;;;;;;;;;;;;;;;;;2081996;28;1328;-94
2021/08/16 06:17:19;;;;;;;;;;;;;;;;;;2082325;28;1380;-94
2021/08/16 06:18:21;;;;;;;;;;;;;;;;;;2074642;28;1437;-94
2021/08/16 06:19:26;;;;;;;;;;;;;;;;;;2082724;28;1241;-94
2021/08/16 06:20:40;;;;;;;;;;;;;;;;;;2081799;28;1324;-92
2021/08/16 06:21:42;;;;;;;;;;;;;;;;;;2076218;28;1216;-93
2021/08/16 06:22:45;;;;;;;;;;;;;;;;;;2077374;28;1912;-93
2021/08/16 06:23:45;;;;;;;;;;;;;;;;;;2082474;28;1316;-93
2021/08/16 06:24:59;;;;;;;;;;;;;;;;;;2082240;28;1229;-94
2021/08/16 06:26:07;;;;;;;;;;;;;;;;;;2080699;28;1990;-95
2021/08/16 06:28:42;;;;;;;;;;;;;;;;;;2077366;28;1324;-95
2021/08/16 06:30:09;;;;;;;;;;;;;;;;;;2075162;28;1251;-95
2021/08/16 06:31:18;;;;;;;;;;;;;;;;;;2078499;28;1480;-94
2021/08/16 06:32:33;;;;;;;;;;;;;;;;;;2078577;28;1248;-96
2021/08/16 06:33:43;;;;;;;;;;;;;;;;;;2083983;28;1158;-94
2021/08/16 06:34:44;;;;;;;;;;;;;;;;;;2083365;28;1311;-93
2021/08/16 06:35:47;;;;;;;;;;;;;;;;;;2090404;28;1372;-94
2021/08/16 06:36:53;;;;;;;;;;;;;;;;;;2082500;28;1295;-94
2021/08/16 06:38:21;;;;;;;;;;;;;;;;;;2077257;28;1305;-94
2021/08/16 06:39:43;;;;;;;;;;;;;;;;;;2082505;28;1258;-95
2021/08/16 06:40:47;;;;;;;;;;;;;;;;;;2082819;28;1163;-95
2021/08/16 06:41:51;;;;;;;;;;;;;;;;;;2082693;28;930;-92
2021/08/16 06:42:54;;;;;;;;;;;;;;;;;;2078720;28;1327;-93
2021/08/16 06:44:06;;;;;;;;;;;;;;;;;;2090587;28;1177;-94
2021/08/16 06:45:08;;;;;;;;;;;;;;;;;;2083424;28;1413;-93
2021/08/16 06:46:14;;;;;;;;;;;;;;;;;;2073547;28;1914;-93
2021/08/16 06:47:16;;;;;;;;;;;;;;;;;;2091141;28;1121;-93
2021/08/16 06:48:17;;;;;;;;;;;;;;;;;;2082335;28;1259;-93
2021/08/16 06:49:19;;;;;;;;;;;;;;;;;;2074404;28;1320;-92
2021/08/16 06:50:21;;;;;;;;;;;;;;;;;;2082542;28;842;-92
2021/08/16 06:51:23;;;;;;;;;;;;;;;;;;2082556;28;1361;-93
2021/08/16 06:52:26;;;;;;;;;;;;;;;;;;2075002;28;1179;-88
2021/08/16 06:53:28;;;;;;;;;;;;;;;;;;2074681;28;1305;-88
2021/08/16 06:54:30;;;;;;;;;;;;;;;;;;2074002;28;1218;-88
2021/08/16 06:55:31;;;;;;;;;;;;;;;;;;2082529;28;1355;-88
2021/08/16 06:58:37;;;;;;;;;;;;;;;;;;2090781;28;673;-84
2021/08/16 06:59:38;;;;;;;;;;;;;;;;;;2082212;28;1687;-84
2021/08/16 07:02:43;;;;;;;;;;;;;;;;;;2102629;27;1201;-86
2021/08/16 07:03:48;;;;;;;;;;;;;;;;;;2129919;27;807;-84
2021/08/16 07:04:50;;;;;;;;;;;;;;;;;;2122929;27;1635;-84
2021/08/16 07:05:52;;;;;;;;;;;;;;;;;;2117038;28;1294;-85
2021/08/16 07:06:57;;;;;;;;;;;;;;;;;;2116534;28;1992;-85
2021/08/16 07:08:00;;;;;;;;;;;;;;;;;;2117111;28;1660;-84
2021/08/16 07:09:02;;;;;;;;;;;;;;;;;;2116715;27;1311;-85
2021/08/16 07:17:43;;;;;;;;;;;;;;;;;;2118063;27;1340;-86
2021/08/16 07:20:13;;;;;;;;;;;;;;;;;;2095520;28;1579;-86
2021/08/16 07:21:22;;;;;;;;;;;;;;;;;;2094701;28;1800;-85
2021/08/16 07:22:24;;;;;;;;;;;;;;;;;;2102567;28;1228;-86
2021/08/16 07:23:48;;;;;;;;;;;;;;;;;;2114192;28;1428;-85
2021/08/16 07:24:49;;;;;;;;;;;;;;;;;;2114724;28;1287;-85
2021/08/16 07:25:53;;;;;;;;;;;;;;;;;;2124971;27;1684;-85
2021/08/16 07:28:27;;;;;;;;;;;;;;;;;;2095348;28;1328;-85
2021/08/16 07:29:30;;;;;;;;;;;;;;;;;;2097274;28;1554;-86
2021/08/16 07:32:21;;;;;;;;;;;;;;;;;;2072647;28;983;-85
2021/08/16 07:33:44;;;;;;;;;;;;;;;;;;2087258;28;1343;-85
2021/08/16 07:36:14;;;;;;;;;;;;;;;;;;2102491;28;764;-84
2021/08/16 07:38:44;;;;;;;;;;;;;;;;;;2092593;28;1372;-85
2021/08/16 07:39:50;;;;;;;;;;;;;;;;;;2091211;28;1196;-84
2021/08/16 07:41:01;;;;;;;;;;;;;;;;;;2101206;28;1421;-84
2021/08/16 07:42:02;;;;;;;;;;;;;;;;;;2099062;28;1349;-84
2021/08/16 07:43:05;;;;;;;;;;;;;;;;;;2099026;28;922;-84
2021/08/16 07:44:21;;;;;;;;;;;;;;;;;;2099119;28;1361;-84
2021/08/16 07:45:26;;;;;;;;;;;;;;;;;;2101777;28;840;-84
2021/08/16 07:46:28;;;;;;;;;;;;;;;;;;2099555;28;1917;-84
2021/08/16 07:47:32;;;;;;;;;;;;;;;;;;2124673;27;1220;-84
2021/08/16 07:48:34;;;;;;;;;;;;;;;;;;2124630;27;1385;-83
2021/08/16 07:49:40;;;;;;;;;;;;;;;;;;2124230;27;1335;-84
2021/08/16 07:50:42;;;;;;;;;;;;;;;;;;2124695;27;1396;-84
2021/08/16 07:51:44;;;;;;;;;;;;;;;;;;2124862;27;818;-84
2021/08/16 07:52:53;;;;;;;;;;;;;;;;;;2133851;27;867;-84
2021/08/16 07:54:01;;;;;;;;;;;;;;;;;;2134252;27;1220;-84
2021/08/16 07:57:22;;;;;;;;;;;;;;;;;;2133962;27;630;-83
2021/08/16 08:03:01;;;;;;;;;;;;;;;;;;2107026;28;1070;-84
2021/08/16 08:04:03;;;;;;;;;;;;;;;;;;2082479;28;1658;-85
2021/08/16 08:05:04;;;;;;;;;;;;;;;;;;2080373;28;1276;-85
2021/08/16 08:06:07;;;;;;;;;;;;;;;;;;2107821;28;1194;-84
2021/08/16 08:07:08;;;;;;;;;;;;;;;;;;2099572;28;1905;-84
2021/08/16 08:08:10;;;;;;;;;;;;;;;;;;2099869;28;1634;-87
2021/08/16 08:09:12;;;;;;;;;;;;;;;;;;2108126;28;1116;-87
2021/08/16 08:10:17;;;;;;;;;;;;;;;;;;2108141;28;1205;-87
2021/08/16 08:11:19;;;;;;;;;;;;;;;;;;2116651;28;1408;-88
2021/08/16 08:12:29;;;;;;;;;;;;;;;;;;2107390;28;1228;-85
2021/08/16 08:18:47;;;;;;;;;;;;;;;;;;2091021;28;618;-86
2021/08/16 08:19:59;;;;;;;;;;;;;;;;;;2089582;28;1394;-90
2021/08/16 08:21:14;;;;;;;;;;;;;;;;;;2091213;28;1243;-88
2021/08/16 08:22:16;;;;;;;;;;;;;;;;;;2101122;28;958;-86
2021/08/16 08:23:40;;;;;;;;;;;;;;;;;;2099210;28;1477;-86
2021/08/16 08:29:11;;;;;;;;;;;;;;;;;;2090771;28;1029;-88
2021/08/16 08:30:13;;;;;;;;;;;;;;;;;;2093440;28;1342;-86
2021/08/16 08:31:15;;;;;;;;;;;;;;;;;;2090518;28;1218;-85
2021/08/16 08:32:16;;;;;;;;;;;;;;;;;;2095715;28;1273;-86
2021/08/16 08:33:26;;;;;;;;;;;;;;;;;;2116200;28;784;-86
2021/08/16 08:36:55;;;;;;;;;;;;;;;;;;2099084;28;1078;-84
2021/08/16 08:37:57;;;;;;;;;;;;;;;;;;2090352;28;1431;-85
2021/08/16 08:42:58;;;;;;;;;;;;;;;;;;2099193;28;602;-86
2021/08/16 08:43:59;;;;;;;;;;;;;;;;;;2111583;28;1237;-88
2021/08/16 08:45:02;;;;;;;;;;;;;;;;;;2107800;28;1182;-86
2021/08/16 08:46:04;;;;;;;;;;;;;;;;;;2115162;28;1285;-86
2021/08/16 08:47:06;;;;;;;;;;;;;;;;;;2116037;28;1961;-86
2021/08/16 08:48:08;;;;;;;;;;;;;;;;;;2107186;28;1297;-92
2021/08/16 08:49:10;;;;;;;;;;;;;;;;;;2107144;28;1350;-86
2021/08/16 08:50:13;;;;;;;;;;;;;;;;;;2107431;28;1443;-87
2021/08/16 08:51:15;;;;;;;;;;;;;;;;;;2107933;28;1254;-87
2021/08/16 08:52:19;;;;;;;;;;;;;;;;;;2099721;28;1314;-88
2021/08/16 08:53:20;;;;;;;;;;;;;;;;;;2099491;28;1388;-88
2021/08/16 08:54:23;;;;;;;;;;;;;;;;;;2107334;28;1350;-87
2021/08/16 08:55:23;;;;;;;;;;;;;;;;;;2107591;28;1313;-87
2021/08/16 08:56:25;;;;;;;;;;;;;;;;;;2107268;28;1218;-86
2021/08/16 08:57:31;;;;;;;;;;;;;;;;;;2115605;28;1227;-87
2021/08/16 08:58:32;;;;;;;;;;;;;;;;;;2117045;28;898;-88
2021/08/16 08:59:33;;;;;;;;;;;;;;;;;;2116013;28;1295;-89
2021/08/16 09:00:36;;;;;;;;;;;;;;;;;;2107155;28;1409;-89
2021/08/16 09:01:39;;;;;;;;;;;;;;;;;;2116669;27;1061;-89
2021/08/16 09:02:41;;;;;;;;;;;;;;;;;;2117901;28;1182;-88
2021/08/16 09:03:51;;;;;;;;;;;;;;;;;;2123963;27;1413;-88
2021/08/16 09:04:52;;;;;;;;;;;;;;;;;;2122966;27;912;-89
2021/08/16 09:06:02;;;;;;;;;;;;;;;;;;2126316;27;1323;-88
2021/08/16 09:15:38;;;;;;;;;;;;;;;;;;2100988;28;966;-88
2021/08/16 09:33:38;;;;;;;;;;;;;;;;;;2068157;28;1102;-88
2021/08/16 09:34:47;;;;;;;;;;;;;;;;;;2060753;28;1331;-87
2021/08/16 09:35:55;;;;;;;;;;;;;;;;;;2061190;28;1226;-88
2021/08/16 09:37:15;;;;;;;;;;;;;;;;;;2068078;28;1205;-88
2021/08/16 09:40:18;;;;;;;;;;;;;;;;;;2100049;28;946;-87
2021/08/16 09:42:47;;;;;;;;;;;;;;;;;;2106703;28;1380;-88
2021/08/16 09:44:05;;;;;;;;;;;;;;;;;;2100392;28;1347;-86
2021/08/16 09:45:11;;;;;;;;;;;;;;;;;;2085587;28;1180;-86
2021/08/16 09:46:20;;;;;;;;;;;;;;;;;;2094945;28;886;-87
2021/08/16 09:47:40;;;;;;;;;;;;;;;;;;2116277;28;1988;-88
2021/08/16 09:49:04;;;;;;;;;;;;;;;;;;2110933;28;1601;-87
2021/08/16 09:50:12;;;;;;;;;;;;;;;;;;2112508;28;1268;-88
2021/08/16 09:51:22;;;;;;;;;;;;;;;;;;2113317;28;864;-86
2021/08/16 09:54:04;;;;;;;;;;;;;;;;;;2114572;28;1231;-86
2021/08/16 09:55:05;;;;;;;;;;;;;;;;;;2108757;28;1218;-86
2021/08/16 09:56:17;;;;;;;;;;;;;;;;;;2112465;28;2054;-89
2021/08/16 09:57:19;;;;;;;;;;;;;;;;;;2117731;27;1386;-87
2021/08/16 09:58:21;;;;;;;;;;;;;;;;;;2116533;28;1235;-87
2021/08/16 09:59:26;;;;;;;;;;;;;;;;;;2117031;28;1252;-86
2021/08/16 10:00:29;;;;;;;;;;;;;;;;;;2116929;27;1335;-87
2021/08/16 10:01:30;;;;;;;;;;;;;;;;;;2116292;28;1432;-87
2021/08/16 10:02:32;;;;;;;;;;;;;;;;;;2116556;28;2099;-88
2021/08/16 10:03:38;;;;;;;;;;;;;;;;;;2124844;27;1326;-86
2021/08/16 10:04:52;;;;;;;;;;;;;;;;;;2125731;27;1325;-87
2021/08/16 10:05:56;;;;;;;;;;;;;;;;;;2119150;27;1274;-89
2021/08/16 10:06:57;;;;;;;;;;;;;;;;;;2117191;28;1913;-85
2021/08/16 10:08:01;;;;;;;;;;;;;;;;;;2125755;27;1336;-87
2021/08/16 10:09:03;;;;;;;;;;;;;;;;;;2131488;27;1212;-86
2021/08/16 10:10:06;;;;;;;;;;;;;;;;;;2125727;27;1462;-85
2021/08/16 10:11:07;;;;;;;;;;;;;;;;;;2074709;28;1443;-86
2021/08/16 10:12:12;;;;;;;;;;;;;;;;;;2066002;28;1265;-85
2021/08/16 10:13:15;;;;;;;;;;;;;;;;;;2075135;28;1369;-85
2021/08/16 10:14:19;;;;;;;;;;;;;;;;;;2087957;28;1431;-87
2021/08/16 10:15:30;;;;;;;;;;;;;;;;;;2082417;28;1186;-86
2021/08/16 10:16:37;;;;;;;;;;;;;;;;;;2081557;28;1285;-93
2021/08/16 10:17:53;;;;;;;;;;;;;;;;;;2077321;28;1314;-89
2021/08/16 10:19:17;;;;;;;;;;;;;;;;;;2074802;28;1223;-90
2021/08/16 10:20:31;;;;;;;;;;;;;;;;;;2082163;28;1228;-90
2021/08/16 10:21:42;;;;;;;;;;;;;;;;;;2082120;28;1222;-90
2021/08/16 10:22:54;;;;;;;;;;;;;;;;;;2075777;28;1288;-90
2021/08/16 10:24:33;;;;;;;;;;;;;;;;;;2081301;28;1795;-90
2021/08/16 10:25:52;;;;;;;;;;;;;;;;;;2094842;28;1204;-88
2021/08/16 10:26:56;;;;;;;;;;;;;;;;;;2076862;28;1372;-88
2021/08/16 10:28:30;;;;;;;;;;;;;;;;;;2091624;27;1980;-91
2021/08/16 10:29:34;;;;;;;;;;;;;;;;;;2074247;28;1385;-88
2021/08/16 10:30:52;;;;;;;;;;;;;;;;;;2080381;28;1351;-87
2021/08/16 10:33:50;;;;;;;;;;;;;;;;;;2085121;27;1310;-90
2021/08/16 10:35:25;;;;;;;;;;;;;;;;;;2092831;27;1562;-87
2021/08/16 10:36:26;;;;;;;;;;;;;;;;;;2096306;27;1354;-87
2021/08/16 10:37:35;;;;;;;;;;;;;;;;;;2120621;27;1321;-89
2021/08/16 10:38:46;;;;;;;;;;;;;;;;;;2091503;27;1288;-88
2021/08/16 10:39:51;;;;;;;;;;;;;;;;;;2082462;28;1221;-88
2021/08/16 10:40:54;;;;;;;;;;;;;;;;;;2073967;28;1431;-77
2021/08/16 10:42:03;;;;;;;;;;;;;;;;;;2081631;28;1364;-79
2021/08/16 10:43:07;;;;;;;;;;;;;;;;;;2081824;28;1944;-79